This is the latest recevied weather packets stored in our database for station/object NL3D. If no packets are shown the sender has not sent any weather packets the latest 1 day(s).
| Time | Temp. | Humidity | Pressure | Rain* | Wind** | Luminosity | Snow |
|---|---|---|---|---|---|---|---|
| 1778083472 | 4.44° C | 77% | 1012.1 hPa | 0 mm | - | 75 W/m² | - |
| 1778079023 | 3.89° C | 77% | 1011.5 hPa | 0 mm | - | 29 W/m² | - |
| 1778078417 | 3.89° C | 77% | 1011.7 hPa | 0 mm | - | 20 W/m² | - |
| 1778077813 | 3.89° C | 77% | 1011.6 hPa | 0 mm | - | 17 W/m² | - |
| 1778077510 | 3.89° C | 77% | 1011.5 hPa | 0 mm | - | 15 W/m² | - |
| 1778074177 | 2.78° C | 80% | 1011.5 hPa | 0 mm | - | 1 W/m² | - |
| 1778073572 | 2.78° C | 81% | 1011.5 hPa | 0 mm | - | 0 W/m² | - |
| 1778072058 | 2.78° C | 81% | 1011.2 hPa | 0 mm | - | 0 W/m² | - |
| 1778071453 | 3.33° C | 80% | 1011.2 hPa | 0 mm | - | 0 W/m² | - |
| 1778070546 | 3.33° C | 76% | 1011.3 hPa | 0 mm | - | 0 W/m² | - |
| 1778069334 | 2.78° C | 81% | 1011.2 hPa | 0 mm | - | 0 W/m² | - |
| 1778069032 | 2.78° C | 81% | 1011.2 hPa | 0 mm | - | 0 W/m² | - |
| 1778067218 | 3.33° C | 78% | 1010.8 hPa | 0 mm | - | 0 W/m² | - |
| 1778065098 | 3.89° C | 77% | 1010.8 hPa | 0 mm | - | 0 W/m² | - |
| 1778063585 | 3.89° C | 78% | 1010.7 hPa | 0 mm | - | 0 W/m² | - |
| 1778062980 | 3.89° C | 78% | 1010.6 hPa | 0 mm | - | 0 W/m² | - |
| 1778062677 | 3.89° C | 77% | 1010.7 hPa | 0 mm | - | 0 W/m² | - |
| 1778062373 | 4.44° C | 77% | 1010.6 hPa | 0 mm | - | 0 W/m² | - |
| 1778062071 | 4.44° C | 76% | 1010.7 hPa | 0 mm | - | 0 W/m² | - |
| 1778061769 | 4.44° C | 74% | 1010.5 hPa | 0 mm | - | 0 W/m² | - |
| 1778061467 | 4.44° C | 72% | 1010.4 hPa | 0 mm | - | 0 W/m² | - |
| 1778061164 | 5° C | 69% | 1010.4 hPa | 0 mm | - | 0 W/m² | - |
| 1778060860 | 5° C | 67% | 1010.4 hPa | 0 mm | - | 0 W/m² | - |
| 1778060559 | 5.56° C | 65% | 1010.3 hPa | 0 mm | - | 0 W/m² | - |
| 1778059954 | 5.56° C | 64% | 1010.4 hPa | 0 mm | - | 0 W/m² | - |
* Rain latest hour (hover to see other rain measurements)
** Current wind speed in m/s (hover to see current wind gust speed)